Time;durP1;ratioP1;P1;durP2;ratioP2;P2;SDS_P1;SDS_P2;PMS_P1;PMS_P2;Temp;Humidity;BMP_temperature;BMP_pressure;BME280_temperature;BME280_humidity;BME280_pressure;Samples;Min_cycle;Max_cycle;Signal;HPM_P1;HPM_P2
2021/03/02 00:01:59;;;;;;;11.63;4.30;;;2.50;99.90;;;;;;5050956;28;20033;-75
2021/03/02 00:04:25;;;;;;;10.07;4.57;;;2.60;99.90;;;;;;5077200;28;20056;-75
2021/03/02 00:06:52;;;;;;;10.73;4.78;;;2.60;99.90;;;;;;5101407;28;20071;-74
2021/03/02 00:09:18;;;;;;;9.23;4.15;;;2.70;99.90;;;;;;5102496;28;20123;-75
2021/03/02 00:11:45;;;;;;;7.18;4.32;;;2.80;99.90;;;;;;5070529;28;20118;-73
2021/03/02 00:14:10;;;;;;;11.32;4.30;;;2.80;99.90;;;;;;5068888;28;20056;-74
2021/03/02 00:16:39;;;;;;;12.88;4.35;;;2.80;99.90;;;;;;5069199;28;20024;-75
2021/03/02 00:19:17;;;;;;;12.77;4.53;;;2.70;99.90;;;;;;5070106;28;20475;-75
2021/03/02 00:21:49;;;;;;;10.32;4.55;;;2.60;99.90;;;;;;5066384;28;20112;-74
2021/03/02 00:24:23;;;;;;;9.10;4.55;;;2.60;99.90;;;;;;5042482;28;20029;-75
2021/03/02 00:26:56;;;;;;;12.00;5.00;;;2.50;99.90;;;;;;5048874;28;20041;-74
2021/03/02 00:29:22;;;;;;;11.50;4.45;;;2.50;99.90;;;;;;5050040;28;20037;-73
2021/03/02 00:31:49;;;;;;;8.63;4.80;;;2.40;99.90;;;;;;5030226;28;20091;-75
2021/03/02 00:34:15;;;;;;;10.30;4.43;;;2.40;99.90;;;;;;5028544;28;20501;-74
2021/03/02 00:36:41;;;;;;;8.75;4.45;;;2.40;99.90;;;;;;5060931;28;20130;-75
2021/03/02 00:39:07;;;;;;;11.55;5.30;;;2.40;99.90;;;;;;5062310;28;20370;-75
2021/03/02 00:41:33;;;;;;;10.70;4.57;;;2.30;99.90;;;;;;5037322;28;20039;-75
2021/03/02 00:43:58;;;;;;;9.98;4.53;;;2.30;99.90;;;;;;5049924;28;20029;-74
2021/03/02 00:46:24;;;;;;;10.32;4.90;;;2.40;99.90;;;;;;5081057;28;20037;-75
2021/03/02 00:48:51;;;;;;;12.07;5.53;;;2.40;99.90;;;;;;5077620;28;20051;-75
2021/03/02 00:51:17;;;;;;;15.82;5.93;;;2.40;99.90;;;;;;5046839;28;20033;-75
2021/03/02 00:53:43;;;;;;;12.98;5.35;;;2.40;99.90;;;;;;5081892;28;20120;-74
2021/03/02 00:56:08;;;;;;;13.90;4.95;;;2.40;99.90;;;;;;5031501;28;20116;-75
2021/03/02 00:58:35;;;;;;;12.05;5.13;;;2.40;99.90;;;;;;5048194;28;20559;-75
2021/03/02 01:01:01;;;;;;;11.75;5.43;;;2.40;99.90;;;;;;5049789;28;20037;-75
2021/03/02 01:03:28;;;;;;;10.77;4.68;;;2.40;99.90;;;;;;5047463;28;20432;-74
2021/03/02 01:05:54;;;;;;;11.18;4.93;;;2.40;99.90;;;;;;5048224;28;20037;-75
2021/03/02 01:08:25;;;;;;;12.95;5.05;;;2.40;99.90;;;;;;5063221;28;20056;-75
2021/03/02 01:10:51;;;;;;;12.20;5.53;;;2.30;99.90;;;;;;5048551;28;20041;-74
2021/03/02 01:13:22;;;;;;;9.65;4.40;;;2.20;99.90;;;;;;5067781;28;20087;-75
2021/03/02 01:15:49;;;;;;;13.75;5.25;;;2.20;99.90;;;;;;5052023;28;20061;-75
2021/03/02 01:18:15;;;;;;;14.15;5.22;;;2.10;99.90;;;;;;5052015;28;20057;-75
2021/03/02 01:20:40;;;;;;;11.10;4.97;;;2.10;99.90;;;;;;5051910;28;20040;-74
2021/03/02 01:23:06;;;;;;;11.20;4.95;;;2.10;99.90;;;;;;5052277;28;20048;-73
2021/03/02 01:25:32;;;;;;;11.82;4.90;;;2.10;99.90;;;;;;5085553;28;20111;-73
2021/03/02 01:27:57;;;;;;;12.60;5.03;;;2.10;99.90;;;;;;5051096;28;20067;-73
2021/03/02 01:30:26;;;;;;;11.05;5.28;;;2.00;99.90;;;;;;5053064;28;20057;-73
2021/03/02 01:32:51;;;;;;;12.23;4.82;;;2.00;99.90;;;;;;5051520;28;20120;-73
2021/03/02 01:35:17;;;;;;;14.77;5.03;;;1.90;99.90;;;;;;5052860;28;20116;-74
2021/03/02 01:37:43;;;;;;;12.45;5.00;;;1.90;99.90;;;;;;5051671;28;20041;-74
2021/03/02 01:40:12;;;;;;;14.75;5.40;;;1.80;99.90;;;;;;5053000;28;20555;-74
2021/03/02 01:42:38;;;;;;;16.23;5.43;;;1.80;99.90;;;;;;5051548;28;20029;-74
2021/03/02 01:45:09;;;;;;;12.57;5.03;;;1.80;99.90;;;;;;5052697;28;20395;-75
2021/03/02 01:47:35;;;;;;;12.05;5.32;;;1.80;99.90;;;;;;5050273;28;20434;-74
2021/03/02 01:50:03;;;;;;;11.35;4.97;;;1.70;99.90;;;;;;5052676;28;20040;-75
2021/03/02 01:52:29;;;;;;;11.30;5.13;;;1.70;99.90;;;;;;5052820;28;20458;-74
2021/03/02 01:54:55;;;;;;;14.48;5.88;;;1.80;99.90;;;;;;5051329;28;20029;-76
2021/03/02 01:57:21;;;;;;;12.70;5.10;;;1.70;99.90;;;;;;5051166;28;20115;-75
2021/03/02 01:59:47;;;;;;;11.25;5.25;;;1.70;99.90;;;;;;5037523;28;20125;-74
2021/03/02 02:02:21;;;;;;;14.05;5.75;;;1.70;99.90;;;;;;5047778;28;20024;-75
2021/03/02 02:04:52;;;;;;;13.10;5.15;;;1.70;99.90;;;;;;5052755;28;20625;-76
2021/03/02 02:07:32;;;;;;;13.88;6.13;;;1.70;99.90;;;;;;5080733;28;20040;-75
2021/03/02 02:10:11;;;;;;;12.20;5.35;;;1.70;99.90;;;;;;5050866;28;20037;-75
2021/03/02 02:12:47;;;;;;;15.57;5.63;;;1.70;99.90;;;;;;5067644;28;20036;-75
2021/03/02 02:15:24;;;;;;;12.23;5.60;;;1.70;99.90;;;;;;5034140;28;20067;-75
2021/03/02 02:18:08;;;;;;;12.25;5.28;;;1.60;99.90;;;;;;5083312;28;20407;-75
2021/03/02 02:20:52;;;;;;;15.43;5.90;;;1.50;99.90;;;;;;5050845;28;20032;-74
2021/03/02 02:23:36;;;;;;;15.20;5.45;;;1.50;99.90;;;;;;5051103;28;20059;-76
2021/03/02 02:26:23;;;;;;;15.82;5.60;;;1.50;99.90;;;;;;5051576;28;20025;-73
2021/03/02 02:28:50;;;;;;;12.43;5.53;;;1.50;99.90;;;;;;5051960;28;20078;-75
2021/03/02 02:31:18;;;;;;;19.00;6.00;;;1.40;99.90;;;;;;5050262;28;20518;-75
2021/03/02 02:33:48;;;;;;;13.45;5.40;;;1.50;99.90;;;;;;5051641;28;20125;-75
2021/03/02 02:36:16;;;;;;;11.88;5.68;;;1.40;99.90;;;;;;5050254;28;20040;-75
2021/03/02 02:38:45;;;;;;;15.20;7.03;;;1.40;99.90;;;;;;5051702;28;20044;-75
2021/03/02 02:41:12;;;;;;;14.18;6.65;;;1.40;99.90;;;;;;5045814;28;20064;-75
2021/03/02 02:43:40;;;;;;;18.90;7.00;;;1.40;99.90;;;;;;5063527;28;20037;-75
2021/03/02 02:46:07;;;;;;;16.38;7.43;;;1.30;99.90;;;;;;5031124;28;20052;-75
2021/03/02 02:48:33;;;;;;;16.80;7.00;;;1.20;99.90;;;;;;5034230;28;20495;-75
2021/03/02 02:50:59;;;;;;;15.45;6.45;;;1.20;99.90;;;;;;5050174;28;20119;-75
2021/03/02 02:53:26;;;;;;;19.77;7.07;;;1.10;99.90;;;;;;5050101;28;20048;-75
2021/03/02 02:55:57;;;;;;;14.75;6.07;;;1.10;99.90;;;;;;5051190;28;20021;-75
2021/03/02 02:58:27;;;;;;;14.35;6.68;;;1.00;99.90;;;;;;5050274;28;20025;-75
2021/03/02 03:00:56;;;;;;;17.17;7.05;;;1.00;99.90;;;;;;5051103;28;20029;-75
2021/03/02 03:03:24;;;;;;;19.25;6.55;;;0.90;99.90;;;;;;5050095;28;20028;-75
2021/03/02 03:05:55;;;;;;;20.17;6.93;;;0.90;99.90;;;;;;5049940;28;20037;-75
2021/03/02 03:08:29;;;;;;;14.38;6.00;;;0.90;99.90;;;;;;5082511;28;20502;-74
2021/03/02 03:10:56;;;;;;;16.73;6.03;;;0.90;99.90;;;;;;5050498;28;20013;-75
2021/03/02 03:13:25;;;;;;;16.30;6.72;;;0.90;99.90;;;;;;5050964;28;20553;-75
2021/03/02 03:15:55;;;;;;;19.10;7.50;;;0.90;99.90;;;;;;5066455;28;20032;-75
2021/03/02 03:18:26;;;;;;;14.23;5.90;;;0.90;99.90;;;;;;5048892;28;20040;-75
2021/03/02 03:20:56;;;;;;;15.48;7.32;;;0.90;99.90;;;;;;5049651;28;20123;-76
2021/03/02 03:23:22;;;;;;;14.48;6.18;;;0.90;99.90;;;;;;5050977;28;20059;-75
2021/03/02 03:25:47;;;;;;;17.85;6.63;;;0.90;99.90;;;;;;5050861;28;20467;-75
2021/03/02 03:28:15;;;;;;;17.88;6.80;;;0.90;99.90;;;;;;5048612;28;20040;-74
2021/03/02 03:30:41;;;;;;;17.17;6.32;;;0.90;99.90;;;;;;5050534;28;20036;-75
2021/03/02 03:33:09;;;;;;;15.02;6.05;;;0.90;99.90;;;;;;5050948;28;20553;-75
2021/03/02 03:35:36;;;;;;;19.13;7.00;;;1.00;99.90;;;;;;5048911;28;20067;-75
2021/03/02 03:38:03;;;;;;;17.02;6.78;;;1.00;99.90;;;;;;5081862;28;20017;-75
2021/03/02 03:40:28;;;;;;;14.02;5.75;;;1.10;99.90;;;;;;5049198;28;20020;-75
2021/03/02 03:42:54;;;;;;;14.98;6.35;;;1.00;99.90;;;;;;5050549;28;20071;-75
2021/03/02 03:45:20;;;;;;;16.58;6.50;;;1.00;99.90;;;;;;5065935;28;20060;-75
2021/03/02 03:47:46;;;;;;;11.93;6.20;;;0.90;99.90;;;;;;5048399;28;20064;-76
2021/03/02 03:50:14;;;;;;;21.65;7.32;;;0.80;99.90;;;;;;5049229;28;20029;-74
2021/03/02 03:52:42;;;;;;;16.38;6.22;;;0.80;99.90;;;;;;5049341;28;20033;-76
2021/03/02 03:55:10;;;;;;;20.95;6.25;;;0.80;99.90;;;;;;5050280;28;20094;-75
2021/03/02 03:57:38;;;;;;;15.07;6.63;;;0.80;99.90;;;;;;5049496;28;20033;-75
2021/03/02 04:00:05;;;;;;;14.73;6.30;;;0.90;99.90;;;;;;5050123;28;20121;-75
2021/03/02 04:02:32;;;;;;;16.23;6.75;;;0.80;99.90;;;;;;5065993;28;20041;-75
2021/03/02 04:05:00;;;;;;;17.15;6.95;;;0.80;99.90;;;;;;5065835;28;20956;-74
2021/03/02 04:07:26;;;;;;;14.10;6.10;;;0.80;99.90;;;;;;5047899;28;20071;-75
2021/03/02 04:09:53;;;;;;;14.43;5.93;;;0.80;99.90;;;;;;5049912;28;20060;-75
2021/03/02 04:12:18;;;;;;;12.43;5.10;;;0.80;99.90;;;;;;5050351;28;20561;-74
2021/03/02 04:14:44;;;;;;;14.65;5.72;;;0.80;99.90;;;;;;5050006;28;20116;-75
2021/03/02 04:17:10;;;;;;;15.30;6.05;;;0.80;99.90;;;;;;5049271;28;20063;-75
2021/03/02 04:19:37;;;;;;;16.35;6.40;;;0.70;99.90;;;;;;5050011;28;20066;-75
2021/03/02 04:22:03;;;;;;;13.77;5.85;;;0.60;99.90;;;;;;5048737;28;20170;-75
2021/03/02 04:24:29;;;;;;;14.40;6.47;;;0.60;99.90;;;;;;5082544;28;20037;-74
2021/03/02 04:26:55;;;;;;;19.58;6.90;;;0.50;99.90;;;;;;5048993;28;20044;-75
2021/03/02 04:29:22;;;;;;;16.20;6.22;;;0.50;99.90;;;;;;5049997;28;20037;-75
2021/03/02 04:31:47;;;;;;;17.52;6.85;;;0.50;99.90;;;;;;5050101;28;20091;-75
2021/03/02 04:34:13;;;;;;;17.85;6.70;;;0.40;99.90;;;;;;5050050;28;20041;-74
2021/03/02 04:36:39;;;;;;;15.55;6.00;;;0.40;99.90;;;;;;5081159;28;20036;-75
2021/03/02 04:39:05;;;;;;;18.20;6.43;;;0.40;99.90;;;;;;5048738;28;20029;-75
2021/03/02 04:41:30;;;;;;;17.30;7.07;;;0.40;99.90;;;;;;5043412;28;20554;-74
2021/03/02 04:43:56;;;;;;;14.55;6.20;;;0.30;99.90;;;;;;5030166;28;20036;-75
2021/03/02 04:46:22;;;;;;;20.13;7.00;;;0.30;99.90;;;;;;5029159;28;20041;-74
2021/03/02 04:48:48;;;;;;;17.00;5.85;;;0.40;99.90;;;;;;5043349;28;20696;-75
2021/03/02 04:51:14;;;;;;;14.15;6.30;;;0.30;99.90;;;;;;5053321;28;20047;-75
2021/03/02 04:53:40;;;;;;;18.75;7.15;;;0.30;99.90;;;;;;5052642;28;20035;-75
2021/03/02 04:56:06;;;;;;;17.35;6.43;;;0.30;99.90;;;;;;5052991;28;20398;-75
2021/03/02 04:58:31;;;;;;;17.65;7.60;;;0.30;99.90;;;;;;5051341;28;20082;-74
2021/03/02 05:00:57;;;;;;;14.40;6.75;;;0.30;99.90;;;;;;5052188;28;20396;-75
2021/03/02 05:03:23;;;;;;;15.93;6.53;;;0.20;99.90;;;;;;5055226;28;20068;-75
2021/03/02 05:05:48;;;;;;;17.38;7.45;;;0.20;99.90;;;;;;5054675;28;20053;-74
2021/03/02 05:08:14;;;;;;;20.23;7.88;;;0.10;99.90;;;;;;5051803;28;20021;-75
2021/03/02 05:10:40;;;;;;;15.50;6.70;;;0.10;99.90;;;;;;5053098;28;20634;-75
2021/03/02 05:13:05;;;;;;;21.02;7.35;;;0.10;99.90;;;;;;5051924;28;20036;-75
2021/03/02 05:15:31;;;;;;;19.88;7.00;;;0.00;99.90;;;;;;5051823;28;20183;-75
2021/03/02 05:17:57;;;;;;;20.50;6.82;;;0.00;99.90;;;;;;5050968;28;20037;-75
2021/03/02 05:20:23;;;;;;;19.65;7.20;;;0.00;99.90;;;;;;5083685;28;20466;-75
2021/03/02 05:22:48;;;;;;;18.73;7.50;;;-0.10;99.90;;;;;;5068071;28;20032;-75
2021/03/02 05:25:14;;;;;;;14.77;6.57;;;-0.10;99.90;;;;;;5052844;28;20032;-75
2021/03/02 05:27:40;;;;;;;22.25;7.35;;;-0.10;99.90;;;;;;5050136;28;20045;-75
2021/03/02 05:30:06;;;;;;;18.65;7.35;;;-0.20;99.90;;;;;;5052915;28;20819;-75
2021/03/02 05:32:32;;;;;;;19.52;7.15;;;-0.20;99.90;;;;;;5084883;28;20033;-75
2021/03/02 05:34:57;;;;;;;14.88;6.68;;;-0.20;99.90;;;;;;5085032;28;20039;-75
2021/03/02 05:37:23;;;;;;;18.05;6.88;;;-0.20;99.90;;;;;;5050035;28;20071;-75
2021/03/02 05:39:49;;;;;;;15.68;6.90;;;-0.20;99.90;;;;;;5084876;28;20131;-75
2021/03/02 05:42:14;;;;;;;17.52;7.18;;;-0.10;99.90;;;;;;5041701;28;20037;-75
2021/03/02 05:44:40;;;;;;;15.30;6.32;;;-0.20;99.90;;;;;;5064753;28;20038;-75
2021/03/02 05:47:08;;;;;;;16.10;6.72;;;-0.30;99.90;;;;;;5063175;28;20400;-75
2021/03/02 05:49:34;;;;;;;17.30;6.32;;;-0.30;99.90;;;;;;5044404;28;20403;-75
2021/03/02 05:52:00;;;;;;;17.33;6.80;;;-0.30;99.90;;;;;;5052454;28;20033;-75
2021/03/02 05:54:26;;;;;;;13.85;6.50;;;-0.30;99.90;;;;;;5051219;28;20131;-75
2021/03/02 05:56:51;;;;;;;22.25;7.40;;;-0.30;99.90;;;;;;5051140;28;20509;-75
2021/03/02 05:59:17;;;;;;;16.65;6.55;;;-0.20;99.90;;;;;;5052077;28;20046;-75
2021/03/02 06:01:43;;;;;;;17.05;6.90;;;-0.30;99.90;;;;;;5051249;28;20678;-75
2021/03/02 06:04:16;;;;;;;13.10;6.22;;;-0.30;99.90;;;;;;5067568;28;20407;-75
2021/03/02 06:06:42;;;;;;;14.45;6.32;;;-0.30;99.90;;;;;;5066625;28;20037;-75
2021/03/02 06:09:07;;;;;;;16.77;6.95;;;-0.30;99.90;;;;;;5051872;28;20048;-75
2021/03/02 06:11:35;;;;;;;16.77;7.13;;;-0.20;99.90;;;;;;5067637;28;20041;-75
2021/03/02 06:14:23;;;;;;;18.30;7.75;;;-0.20;99.90;;;;;;5051854;28;20037;-75
2021/03/02 06:16:52;;;;;;;18.65;6.93;;;-0.10;99.90;;;;;;5050610;28;20029;-75
2021/03/02 06:19:34;;;;;;;20.63;7.38;;;0.00;99.90;;;;;;5052179;28;20029;-75
2021/03/02 06:21:59;;;;;;;22.10;7.68;;;0.00;99.90;;;;;;5051914;28;20041;-75
2021/03/02 06:24:39;;;;;;;20.25;7.47;;;0.00;99.90;;;;;;5051756;28;20033;-75
2021/03/02 06:27:10;;;;;;;17.20;7.85;;;0.10;99.90;;;;;;5048921;28;20380;-75
2021/03/02 06:29:35;;;;;;;21.02;7.22;;;0.10;99.90;;;;;;5050697;28;20033;-75
2021/03/02 06:32:01;;;;;;;18.65;7.75;;;0.10;99.90;;;;;;5051653;28;20037;-75
2021/03/02 06:34:27;;;;;;;15.85;6.57;;;0.10;99.90;;;;;;5034005;28;20040;-75
2021/03/02 06:36:52;;;;;;;19.00;8.00;;;0.00;99.90;;;;;;5065556;28;20148;-75
2021/03/02 06:39:31;;;;;;;19.77;8.30;;;0.00;99.90;;;;;;5051534;28;20079;-75
2021/03/02 06:42:13;;;;;;;18.95;7.20;;;0.10;99.90;;;;;;5075263;28;20104;-75
2021/03/02 06:44:40;;;;;;;21.67;7.68;;;0.20;99.90;;;;;;5044708;28;20029;-75
2021/03/02 06:47:06;;;;;;;18.90;7.70;;;0.20;99.90;;;;;;5049992;28;20032;-75
2021/03/02 06:49:45;;;;;;;18.17;7.65;;;0.20;99.90;;;;;;5051412;28;20052;-75
2021/03/02 06:52:19;;;;;;;14.25;6.65;;;0.20;99.90;;;;;;5051209;28;20036;-75
2021/03/02 06:54:48;;;;;;;16.55;6.63;;;0.30;99.90;;;;;;5049790;28;20519;-75
2021/03/02 06:57:24;;;;;;;15.85;7.15;;;0.30;99.90;;;;;;5049005;28;20025;-75
2021/03/02 06:59:55;;;;;;;19.25;7.32;;;0.40;99.90;;;;;;5049673;28;20024;-75
2021/03/02 07:02:33;;;;;;;19.33;8.02;;;0.70;99.90;;;;;;5051153;28;20029;-76
2021/03/02 07:05:16;;;;;;;19.30;8.25;;;1.30;99.90;;;;;;5081264;28;20515;-75
2021/03/02 07:07:55;;;;;;;17.42;8.50;;;1.90;99.90;;;;;;5045892;28;20082;-75
2021/03/02 07:10:24;;;;;;;15.25;7.75;;;2.70;99.90;;;;;;5079664;28;20052;-75
2021/03/02 07:12:55;;;;;;;19.30;8.00;;;3.40;99.90;;;;;;5049542;28;20107;-75
2021/03/02 07:15:24;;;;;;;15.13;7.38;;;4.00;99.90;;;;;;5054428;28;20025;-75
2021/03/02 07:17:52;;;;;;;16.98;7.05;;;4.50;99.90;;;;;;5049170;28;20957;-75
2021/03/02 07:20:23;;;;;;;15.07;7.47;;;5.10;99.90;;;;;;5048176;28;20029;-75
2021/03/02 07:22:52;;;;;;;18.23;6.65;;;5.60;99.90;;;;;;5049071;28;20057;-75
2021/03/02 07:25:19;;;;;;;16.00;8.07;;;6.10;99.90;;;;;;5082679;28;20051;-75
2021/03/02 07:27:49;;;;;;;17.75;8.05;;;6.50;99.90;;;;;;5049057;28;20033;-75
2021/03/02 07:30:15;;;;;;;13.45;6.70;;;6.90;99.90;;;;;;5048600;28;20029;-74
2021/03/02 07:32:42;;;;;;;17.33;7.60;;;7.20;99.90;;;;;;5050022;28;20121;-74
2021/03/02 07:35:10;;;;;;;16.52;7.45;;;7.40;99.90;;;;;;5050358;28;20029;-74
2021/03/02 07:37:36;;;;;;;16.27;8.38;;;7.70;99.90;;;;;;5047207;28;20531;-74
2021/03/02 07:40:05;;;;;;;15.13;8.00;;;7.80;99.90;;;;;;5047638;28;20025;-74
2021/03/02 07:42:31;;;;;;;14.82;7.43;;;7.90;99.90;;;;;;5046308;28;20518;-74
2021/03/02 07:45:07;;;;;;;20.13;7.78;;;8.00;99.90;;;;;;5080882;28;20391;-74
2021/03/02 07:47:56;;;;;;;14.30;7.05;;;8.10;99.90;;;;;;5044495;28;20028;-74
2021/03/02 07:50:27;;;;;;;19.33;7.22;;;8.10;99.90;;;;;;5049118;28;20769;-74
2021/03/02 07:53:21;;;;;;;16.45;7.75;;;8.20;99.90;;;;;;5049698;28;20036;-74
2021/03/02 07:55:48;;;;;;;14.90;6.93;;;8.20;99.90;;;;;;5047129;28;20036;-74
2021/03/02 07:58:21;;;;;;;19.10;7.88;;;8.30;99.90;;;;;;5080760;28;20396;-74
2021/03/02 08:00:50;;;;;;;15.50;6.82;;;8.40;99.90;;;;;;5047252;28;20040;-74
2021/03/02 08:03:20;;;;;;;13.75;6.93;;;8.50;99.90;;;;;;5049757;28;20059;-74
2021/03/02 08:05:49;;;;;;;17.35;7.05;;;8.50;99.90;;;;;;5049775;28;20078;-74
2021/03/02 08:08:24;;;;;;;17.85;7.63;;;8.60;99.90;;;;;;5048726;28;20408;-74
2021/03/02 08:11:01;;;;;;;16.07;8.43;;;8.60;99.90;;;;;;5080711;28;20515;-74
2021/03/02 08:13:38;;;;;;;21.05;10.25;;;8.60;99.90;;;;;;5063471;28;20291;-74
2021/03/02 08:16:06;;;;;;;18.20;8.27;;;8.50;99.90;;;;;;5048936;28;20147;-73
2021/03/02 08:18:33;;;;;;;17.55;8.23;;;8.50;99.90;;;;;;5047855;28;20029;-73
2021/03/02 08:21:20;;;;;;;14.80;7.80;;;8.50;99.90;;;;;;5049188;28;20078;-74
2021/03/02 08:23:52;;;;;;;16.08;8.30;;;8.30;99.90;;;;;;5051894;28;20032;-74
2021/03/02 08:26:31;;;;;;;18.52;7.70;;;8.20;99.90;;;;;;5051058;28;20197;-74
2021/03/02 08:29:11;;;;;;;15.73;7.25;;;8.20;99.90;;;;;;5086641;28;20472;-74
2021/03/02 08:31:39;;;;;;;15.35;7.32;;;8.20;99.90;;;;;;5053865;28;20029;-74
2021/03/02 08:34:07;;;;;;;18.73;8.88;;;8.20;99.90;;;;;;5085944;28;20027;-74
2021/03/02 08:36:34;;;;;;;18.40;8.90;;;8.30;99.90;;;;;;5050812;28;20483;-74
2021/03/02 08:39:00;;;;;;;18.95;8.77;;;8.20;99.90;;;;;;5053499;28;20094;-74
2021/03/02 08:41:35;;;;;;;18.63;9.00;;;8.10;99.90;;;;;;5049249;28;20600;-74
2021/03/02 08:44:02;;;;;;;21.58;8.95;;;8.00;99.90;;;;;;5049150;28;20140;-74
2021/03/02 08:46:30;;;;;;;23.02;9.57;;;7.70;99.90;;;;;;5064530;28;20042;-74
2021/03/02 08:48:56;;;;;;;17.38;8.23;;;7.60;99.90;;;;;;5054974;28;20056;-74
2021/03/02 08:51:23;;;;;;;22.13;10.15;;;7.50;99.90;;;;;;5082867;28;20033;-73
2021/03/02 08:53:51;;;;;;;19.25;9.63;;;7.50;99.90;;;;;;5076619;28;20144;-74
2021/03/02 08:56:18;;;;;;;20.05;9.23;;;7.40;99.90;;;;;;5049014;28;20053;-73
2021/03/02 08:58:55;;;;;;;19.92;8.93;;;7.40;99.90;;;;;;5044986;28;20025;-73
2021/03/02 09:01:28;;;;;;;22.63;9.82;;;7.40;99.90;;;;;;5048036;28;20033;-74
2021/03/02 09:04:11;;;;;;;24.73;10.10;;;7.50;99.90;;;;;;5050958;28;20048;-73
2021/03/02 09:06:38;;;;;;;27.00;11.27;;;7.60;99.90;;;;;;5050513;28;20035;-74
2021/03/02 09:09:09;;;;;;;19.67;9.00;;;7.70;99.90;;;;;;5050776;28;20067;-74
2021/03/02 09:11:38;;;;;;;18.85;8.77;;;7.80;99.90;;;;;;5052672;28;20424;-73
2021/03/02 09:14:21;;;;;;;19.10;9.60;;;7.90;99.90;;;;;;5052720;28;20043;-73
2021/03/02 09:16:48;;;;;;;17.50;7.63;;;7.90;99.90;;;;;;5044340;28;20025;-74
2021/03/02 09:19:18;;;;;;;20.17;8.00;;;8.00;99.90;;;;;;5049621;28;20033;-74
2021/03/02 09:22:02;;;;;;;23.77;9.70;;;8.10;99.90;;;;;;5050923;28;20037;-73
2021/03/02 09:24:30;;;;;;;17.10;6.60;;;8.10;99.90;;;;;;5044490;28;20040;-73
2021/03/02 09:27:02;;;;;;;20.17;7.28;;;8.30;99.90;;;;;;5077109;28;20047;-73
2021/03/02 09:29:38;;;;;;;17.25;7.38;;;8.40;99.90;;;;;;5083495;28;20053;-73
2021/03/02 09:32:05;;;;;;;14.45;6.47;;;8.50;99.90;;;;;;5049551;28;20060;-73
2021/03/02 09:34:35;;;;;;;13.77;6.82;;;8.50;99.90;;;;;;5052388;28;20041;-73
2021/03/02 09:37:06;;;;;;;19.52;7.20;;;8.60;99.90;;;;;;5082091;28;20365;-73
2021/03/02 09:39:33;;;;;;;14.15;6.32;;;8.70;99.90;;;;;;5052840;28;20037;-73
2021/03/02 09:41:59;;;;;;;15.10;6.47;;;8.80;99.90;;;;;;5043903;28;20075;-73
2021/03/02 09:44:33;;;;;;;15.02;7.30;;;9.10;99.90;;;;;;5064675;28;20519;-74
2021/03/02 09:47:06;;;;;;;15.82;6.90;;;9.20;99.90;;;;;;5031600;28;20025;-73
2021/03/02 09:49:43;;;;;;;14.95;6.38;;;9.20;99.90;;;;;;5043721;28;20091;-73
2021/03/02 09:52:21;;;;;;;14.88;6.97;;;9.40;99.90;;;;;;5051754;28;20029;-73
2021/03/02 09:55:15;;;;;;;14.98;7.28;;;9.40;99.90;;;;;;5052159;28;20056;-74
2021/03/02 09:58:07;;;;;;;12.52;6.15;;;9.50;99.90;;;;;;5051283;28;20025;-74
2021/03/02 10:00:36;;;;;;;15.57;6.80;;;9.60;99.90;;;;;;5052541;28;20037;-74
2021/03/02 10:03:13;;;;;;;13.70;6.75;;;9.60;99.90;;;;;;5052462;28;20488;-74
2021/03/02 10:06:00;;;;;;;15.45;7.25;;;9.60;99.90;;;;;;5052200;28;20041;-74
2021/03/02 10:08:35;;;;;;;18.58;7.10;;;9.70;99.90;;;;;;5051063;28;20504;-74
2021/03/02 10:11:10;;;;;;;13.30;6.35;;;9.70;99.90;;;;;;5051355;28;20037;-74
2021/03/02 10:13:45;;;;;;;11.35;5.65;;;10.00;99.90;;;;;;5050805;28;20059;-74
2021/03/02 10:16:29;;;;;;;13.45;6.05;;;10.20;98.30;;;;;;5051258;28;20108;-74
2021/03/02 10:19:23;;;;;;;12.60;5.60;;;10.30;97.30;;;;;;5052313;28;20044;-74
2021/03/02 10:21:54;;;;;;;11.80;5.60;;;10.40;97.20;;;;;;5051838;28;20025;-74
2021/03/02 10:24:27;;;;;;;12.25;5.72;;;10.60;97.50;;;;;;5051867;28;20037;-73
2021/03/02 10:26:55;;;;;;;13.43;6.85;;;10.70;95.40;;;;;;5049396;28;20029;-73
2021/03/02 10:29:22;;;;;;;11.20;5.57;;;10.80;95.90;;;;;;5051965;28;20045;-73
2021/03/02 10:31:49;;;;;;;15.32;6.28;;;10.90;96.60;;;;;;5050394;28;20052;-73
2021/03/02 10:34:15;;;;;;;12.85;5.97;;;10.90;94.50;;;;;;5066943;28;20040;-74
2021/03/02 10:36:42;;;;;;;13.45;5.50;;;11.00;93.50;;;;;;5050380;28;20029;-74
2021/03/02 10:39:10;;;;;;;12.13;5.60;;;11.10;92.80;;;;;;5033919;28;20033;-73
2021/03/02 10:41:36;;;;;;;14.63;6.50;;;11.10;90.50;;;;;;5045890;28;20029;-74
2021/03/02 10:44:03;;;;;;;11.48;5.90;;;11.10;92.50;;;;;;5063046;28;20662;-74
2021/03/02 10:46:31;;;;;;;10.35;5.85;;;11.20;91.20;;;;;;5029244;28;20041;-74
2021/03/02 10:48:58;;;;;;;14.40;5.65;;;11.20;91.40;;;;;;5038196;28;20047;-74
2021/03/02 10:51:24;;;;;;;14.18;5.85;;;11.20;90.30;;;;;;5083864;28;20458;-74
2021/03/02 10:53:50;;;;;;;12.52;5.53;;;11.20;90.20;;;;;;5048545;28;20071;-73
2021/03/02 10:56:17;;;;;;;13.77;5.65;;;11.20;88.10;;;;;;5050080;28;20032;-74
2021/03/02 10:58:44;;;;;;;13.52;6.30;;;11.20;89.90;;;;;;5051222;28;20123;-73
2021/03/02 11:01:09;;;;;;;12.75;5.57;;;11.30;88.50;;;;;;5051343;28;20055;-74
2021/03/02 11:03:35;;;;;;;13.60;5.85;;;11.40;88.00;;;;;;5050347;28;20025;-73
2021/03/02 11:06:03;;;;;;;11.63;5.80;;;11.50;86.10;;;;;;5045777;28;20523;-73
2021/03/02 11:08:28;;;;;;;13.05;6.18;;;11.50;82.80;;;;;;5037018;28;20037;-72
2021/03/02 11:10:54;;;;;;;13.05;5.68;;;11.50;83.10;;;;;;5038292;28;20036;-74
2021/03/02 11:13:20;;;;;;;13.55;5.65;;;11.60;87.40;;;;;;5040979;28;20056;-74
2021/03/02 11:15:46;;;;;;;11.45;5.35;;;11.70;83.80;;;;;;5069533;28;20045;-73
2021/03/02 11:18:12;;;;;;;13.00;5.57;;;11.80;82.40;;;;;;5045670;28;20020;-73
2021/03/02 11:20:39;;;;;;;10.77;5.30;;;11.80;81.60;;;;;;5048944;28;20027;-73
2021/03/02 11:23:05;;;;;;;11.20;5.63;;;11.70;79.60;;;;;;5054153;28;20056;-74
2021/03/02 11:25:30;;;;;;;11.55;5.20;;;11.80;80.60;;;;;;5052407;28;20029;-74
2021/03/02 11:27:57;;;;;;;12.38;5.90;;;11.80;78.40;;;;;;5049852;28;20380;-74
2021/03/02 11:30:23;;;;;;;14.30;6.20;;;11.90;80.90;;;;;;5047146;28;20067;-72
2021/03/02 11:32:49;;;;;;;10.23;4.93;;;12.00;80.90;;;;;;5049618;28;20115;-74
2021/03/02 11:35:16;;;;;;;8.95;4.80;;;12.10;74.40;;;;;;5049191;28;20179;-74
2021/03/02 11:37:42;;;;;;;12.07;5.70;;;12.10;72.70;;;;;;5048732;28;20037;-74
2021/03/02 11:40:14;;;;;;;11.68;5.30;;;12.10;76.80;;;;;;5056424;28;20052;-75
2021/03/02 11:42:41;;;;;;;12.73;5.70;;;12.20;74.90;;;;;;5039358;28;20037;-75
2021/03/02 11:45:11;;;;;;;10.82;5.28;;;12.10;74.20;;;;;;5047620;28;20025;-75
2021/03/02 11:47:37;;;;;;;12.95;6.03;;;12.10;74.20;;;;;;5047867;28;20036;-74
2021/03/02 11:50:05;;;;;;;10.85;5.78;;;12.10;75.10;;;;;;5049257;28;20043;-75
2021/03/02 11:52:31;;;;;;;10.57;5.35;;;12.10;78.30;;;;;;5051180;28;20024;-74
2021/03/02 11:54:57;;;;;;;11.85;5.65;;;12.20;75.70;;;;;;5046422;28;20040;-73
2021/03/02 11:57:22;;;;;;;10.23;5.22;;;12.30;74.30;;;;;;5046792;28;20025;-74
2021/03/02 11:59:48;;;;;;;10.38;5.43;;;12.30;75.90;;;;;;5049703;28;20052;-74
2021/03/02 12:02:14;;;;;;;10.98;5.18;;;12.30;74.00;;;;;;5049582;28;20017;-74
2021/03/02 12:04:41;;;;;;;10.63;5.03;;;12.40;73.40;;;;;;5049898;28;20103;-74
2021/03/02 12:07:11;;;;;;;12.80;5.82;;;12.30;70.80;;;;;;5047329;28;20447;-73
2021/03/02 12:09:37;;;;;;;10.85;5.00;;;12.30;71.40;;;;;;5050036;28;20069;-75
2021/03/02 12:12:04;;;;;;;12.30;5.90;;;12.40;71.80;;;;;;5049567;28;21534;-73
2021/03/02 12:14:30;;;;;;;14.02;6.15;;;12.40;72.40;;;;;;5056778;28;20061;-75
2021/03/02 12:16:56;;;;;;;11.55;5.47;;;12.40;71.40;;;;;;5082534;28;20033;-73
2021/03/02 12:19:22;;;;;;;11.48;5.50;;;12.40;75.60;;;;;;5052253;28;20045;-74
2021/03/02 12:21:48;;;;;;;13.80;5.72;;;12.50;73.10;;;;;;5049887;28;20112;-74
2021/03/02 12:24:14;;;;;;;11.48;5.45;;;12.60;70.50;;;;;;5050030;28;20369;-74
2021/03/02 12:26:39;;;;;;;13.20;5.65;;;12.60;70.60;;;;;;5043649;28;20029;-73
2021/03/02 12:29:07;;;;;;;14.65;5.22;;;12.70;69.20;;;;;;5049650;28;20036;-74
2021/03/02 12:31:33;;;;;;;13.05;5.80;;;12.70;68.20;;;;;;5048176;28;20411;-75
2021/03/02 12:33:59;;;;;;;9.40;4.68;;;12.80;68.70;;;;;;5048130;28;20373;-75
2021/03/02 12:36:24;;;;;;;9.98;4.88;;;12.70;72.00;;;;;;5048219;28;20159;-74
2021/03/02 12:38:50;;;;;;;12.82;5.68;;;12.90;70.80;;;;;;5049314;28;20554;-74
2021/03/02 12:41:16;;;;;;;9.52;4.65;;;12.90;70.00;;;;;;5046773;28;20064;-74
2021/03/02 12:43:42;;;;;;;11.38;5.22;;;13.10;72.40;;;;;;5029968;28;20044;-74
2021/03/02 12:46:07;;;;;;;12.20;5.72;;;13.20;68.60;;;;;;5063155;28;20038;-73
2021/03/02 12:48:33;;;;;;;10.60;5.40;;;13.30;68.10;;;;;;5045865;28;20047;-74
2021/03/02 12:50:59;;;;;;;10.07;5.20;;;13.40;64.80;;;;;;5045429;28;20057;-74
2021/03/02 12:53:25;;;;;;;10.73;4.95;;;13.50;67.00;;;;;;5076354;28;20025;-74